Thursday, April 26, 2018, 5:46 AM EDT
Back to Local

KFZY, Fulton Oswego County Airport

Location: Fulton, NY, United States Lat: 43.35
Local Time: 5:46 AM EDT ( 9:46 GMT) Lon: -76.383
Time Zone: US/Eastern Elev: 475 ft

Show me the last for .
Show Decoded

2018-04-26 04:54 METAR KFZY 260854Z AUTO 26008KT 9SM OVC008 06/04 A2970 RMK AO2 SLP059 T00560044
                 53006 =
2018-04-26 03:54 METAR KFZY 260754Z AUTO 27010KT 10SM OVC006 06/05 A2969 RMK AO2 CIG 005V009
                 SLP056 T00610050 =
2018-04-26 03:50 METAR KFZY 260750Z AUTO 27011G16KT 9SM OVC006 06/05 A2969 RMK AO2 CIG 005V009 =
2018-04-26 03:05 METAR KFZY 260705Z AUTO 27013KT 10SM OVC005 07/06 A2968 RMK AO2 CIG 002V008
                 T00670056 =
2018-04-26 02:54 METAR KFZY 260654Z AUTO 26015G19KT 10SM OVC003 07/06 A2968 RMK AO2 CIG 002V008
                 SLP052 T00670056 =
2018-04-26 02:23 METAR KFZY 260623Z AUTO 26009KT 10SM OVC004 07/06 A2969 RMK AO2 T00670061 =
2018-04-26 02:09 METAR KFZY 260609Z AUTO 27010KT 8SM OVC006 07/06 A2969 RMK AO2 T00670056 =
2018-04-26 01:54 METAR KFZY 260554Z AUTO 27011G19KT 4SM BR OVC005 07/06 A2969 RMK AO2 SLP055
                 60001 T00670056 10117 20067 56005 =
2018-04-26 01:39 METAR KFZY 260539Z AUTO 28013G18KT 3SM BR OVC005 07/06 A2969 RMK AO2 T00670056 =
2018-04-26 01:07 METAR KFZY 260507Z AUTO 28011KT 5SM BR OVC003 07/06 A2969 RMK AO2 T00670061 =
2018-04-26 00:54 METAR KFZY 260454Z AUTO 27013KT 2 1/2SM BR OVC004 07/06 A2969 RMK AO2 SLP055
                 T00670061 401500067 =
2018-04-26 00:37 METAR KFZY 260437Z AUTO 27017G23KT 2 1/2SM BR OVC005 07/06 A2969 RMK AO2
                 T00720061 =
2018-04-26 00:33 METAR KFZY 260433Z AUTO 27016G21KT 3SM BR OVC003 08/07 A2969 RMK AO2 CIG 003V007
                 T00780067 =
2018-04-25 23:54 METAR KFZY 260354Z AUTO 27008KT 2SM BR OVC002 08/07 A2970 RMK AO2 RAE09 SLP056
                 P0000 T00780072 =
2018-04-25 23:44 METAR KFZY 260344Z AUTO 27010KT 2SM BR OVC002 08/07 A2970 RMK AO2 RAE09 P0000
                 T00780072 =
2018-04-25 22:54 METAR KFZY 260254Z AUTO 27008KT 10SM -RA OVC004 09/08 A2971 RMK AO2 RAB12E22B39
                 SLP060 P0000 60001 T00890078 58002 =
2018-04-25 22:34 METAR KFZY 260234Z AUTO 25008KT 10SM OVC004 09/08 A2971 RMK AO2 RAB12E22 CIG
                 003V009 P0000 T00890083 =
2018-04-25 22:09 METAR KFZY 260209Z AUTO 26006KT 10SM OVC005 09/09 A2971 RMK AO2 CIG 003V007
                 T00940089 =
2018-04-25 21:54 METAR KFZY 260154Z AUTO 27010KT 10SM OVC004 10/09 A2972 RMK AO2 RAE11B33E42
                 SLP065 P0000 T01000089 =
2018-04-25 21:29 METAR KFZY 260129Z AUTO 27009KT 8SM OVC002 10/09 A2971 RMK AO2 RAE11 P0000
                 T01000094 =
2018-04-25 21:20 METAR KFZY 260120Z AUTO 28012KT 2 1/2SM BR OVC002 10/09 A2972 RMK AO2 RAE11
                 P0000 T01000094 =
2018-04-25 21:03 METAR KFZY 260103Z AUTO 27010KT 5SM -RA BR BKN004 OVC011 11/11 A2971 RMK AO2 CIG
                 002V007 P0000 T01110106 =
2018-04-25 20:54 METAR KFZY 260054Z AUTO 26005KT 4SM -RA BR BKN006 OVC012 12/11 A2971 RMK AO2
                 RAE34B50 CIG 002V008 SLP062 P0001 T01170106 =
2018-04-25 20:52 METAR KFZY 260052Z AUTO 25003KT 4SM -RA BR BKN006 OVC012 12/11 A2971 RMK AO2
                 RAE34B50 CIG 002V007 P0001 =
2018-04-25 20:35 METAR KFZY 260035Z AUTO 24004KT 4SM BR FEW003 BKN012 OVC027 12/11 A2971 RMK AO2
                 RAE34 P0001 T01170106 =
2018-04-25 20:15 METAR KFZY 260015Z AUTO 00000KT 8SM -RA SCT004 BKN021 OVC026 12/11 A2971 RMK AO2
                 P0001 T01170111 =
2018-04-25 20:04 METAR KFZY 260004Z AUTO 27003KT 3SM -RA BR BKN004 BKN016 OVC023 12/11 A2971 RMK
                 AO2 P0000 T01170111 =
2018-04-25 19:54 METAR KFZY 252354Z AUTO 28004KT 2 1/2SM -RA BR OVC005 12/11 A2971 RMK AO2 SLP061
                 P0003 60016 T01170106 10144 20117 55002 =
2018-04-25 19:47 METAR KFZY 252347Z AUTO 28005KT 3SM -RA BR OVC005 12/11 A2971 RMK AO2 P0002
                 T01170106 =
2018-04-25 19:35 METAR KFZY 252335Z AUTO 17003KT 1 3/4SM -RA BR BKN005 OVC015 12/11 A2970 RMK AO2
                 P0002 T01170111 =
2018-04-25 19:22 METAR KFZY 252322Z AUTO 00000KT 6SM -RA BR BKN005 BKN015 OVC026 12/11 A2970 RMK
                 AO2 P0001 T01170111 =
2018-04-25 18:54 METAR KFZY 252254Z AUTO 00000KT 10SM -RA FEW006 BKN021 OVC027 12/11 A2970 RMK
                 AO2 RAE34B50 SLP059 P0000 T01220111 =
2018-04-25 18:42 METAR KFZY 252242Z AUTO 00000KT 10SM SCT006 BKN019 OVC029 12/11 A2971 RMK AO2
                 RAE34 P0000 T01220111 =
2018-04-25 17:54 METAR KFZY 252154Z AUTO 00000KT 5SM -RA BR BKN006 BKN015 OVC090 12/11 A2971 RMK
                 AO2 SLP063 P0004 T01170111 =
2018-04-25 17:50 METAR KFZY 252150Z AUTO 00000KT 6SM -RA BR BKN006 BKN015 OVC090 12/11 A2971 RMK
                 AO2 P0003 =
2018-04-25 17:07 METAR KFZY 252107Z AUTO 00000KT 6SM -RA BR OVC005 12/11 A2973 RMK AO2 CIG
                 004V009 P0001 T01220111 =
2018-04-25 16:54 METAR KFZY 252054Z AUTO 00000KT 4SM RA BR OVC007 12/11 A2973 RMK AO2 CIG 004V010
                 SLP068 P0008 60009 T01170111 56015 =
2018-04-25 16:27 METAR KFZY 252027Z AUTO VRB03KT 4SM RA BR BKN007 OVC019 12/11 A2973 RMK AO2
                 P0005 T01220106 =
2018-04-25 16:16 METAR KFZY 252016Z AUTO 00000KT 4SM RA BR SCT009 OVC020 12/11 A2973 RMK AO2
                 P0003 T01220111 =
2018-04-25 15:54 METAR KFZY 251954Z AUTO VRB03KT 9SM -RA OVC020 12/10 A2973 RMK AO2 RAB25 SLP069
                 P0001 T01220100 =
2018-04-25 15:01 METAR KFZY 251901Z AUTO VRB05KT 10SM FEW015 BKN028 OVC034 14/09 A2975 RMK AO2
                 T01390094 =
2018-04-25 14:54 METAR KFZY 251854Z AUTO 12006KT 10SM FEW020 BKN030 OVC036 14/10 A2975 RMK AO2
                 SLP075 T01440100 =
2018-04-25 14:09 METAR KFZY 251809Z AUTO 13007KT 10SM FEW014 OVC040 14/10 A2977 RMK AO2 T01390100
                 =
2018-04-25 13:54 METAR KFZY 251754Z AUTO VRB05KT 10SM BKN014 BKN020 OVC039 14/10 A2978 RMK AO2
                 SLP083 60001 T01390100 10139 20106 56028 =
2018-04-25 12:54 METAR KFZY 251654Z AUTO 11006KT 10SM OVC013 13/09 A2980 RMK AO2 SLP091 T01280094
                 =
2018-04-25 11:54 METAR KFZY 251554Z AUTO 11007KT 070V150 10SM BKN013 OVC044 13/09 A2983 RMK AO2
                 SLP102 T01280094 =
2018-04-25 10:54 METAR KFZY 251454Z AUTO 12007G15KT 080V150 10SM BKN011 BKN025 OVC035 12/09 A2986
                 RMK AO2 RAE04 SLP112 P0000 60001 T01170094 56025 =
2018-04-25 10:05 METAR KFZY 251405Z AUTO VRB04KT 10SM BKN010 OVC026 11/09 A2988 RMK AO2 RAE04 CIG
                 006V014 P0000 T01060089 =
2018-04-25 09:54 METAR KFZY 251354Z AUTO 12004KT 7SM -RA BKN008 OVC026 11/09 A2989 RMK AO2 CIG
                 006V012 SLP122 P0001 T01060089 =
2018-04-25 09:12 METAR KFZY 251312Z AUTO 11005KT 3SM -RA BR BKN008 OVC037 11/09 A2990 RMK AO2
                 P0001 T01060089 =
2018-04-25 08:54 METAR KFZY 251254Z AUTO 11005KT 5SM -RA BR SCT006 OVC039 11/09 A2991 RMK AO2
                 RAB26 SLP128 P0000 T01060089 =
2018-04-25 08:44 METAR KFZY 251244Z AUTO VRB05KT 2SM -RA BR SCT006 BKN041 OVC048 11/09 A2992 RMK
                 AO2 RAB26 P0000 T01060094 =
2018-04-25 07:54 METAR KFZY 251154Z AUTO 11007KT 080V140 10SM FEW008 OVC065 11/09 A2994 RMK AO2
                 RAE44 SLP138 P0001 60014 70014 T01060089 10122 20100 58019 =
2018-04-25 07:15 METAR KFZY 251115Z AUTO VRB04KT 4SM -RA BR FEW008 BKN044 OVC055 10/09 A2995 RMK
                 AO2 P0001 T01000089 =
2018-04-25 06:54 METAR KFZY 251054Z AUTO 11004KT 5SM -RA BR FEW034 BKN046 OVC060 10/09 A2996 RMK
                 AO2 RAE18B27 SLP145 P0000 T01000089 =
2018-04-25 06:42 METAR KFZY 251042Z AUTO 11004KT 9SM -RA SCT028 BKN046 OVC060 10/09 A2996 RMK AO2
                 RAE18B27 P0000 T01000089 =
2018-04-25 06:25 METAR KFZY 251025Z AUTO 11005KT 9SM SCT006 BKN026 OVC042 10/09 A2996 RMK AO2
                 RAE18 P0000 T01000089 =
2018-04-25 05:54 METAR KFZY 250954Z AUTO VRB03KT 5SM -RA BR BKN006 OVC026 10/09 A2998 RMK AO2
                 SLP150 P0003 T01000089 =

Support USWX by starting your Amazon purchase here.